createdAt,value
2024-03-08T00:01:50.694Z,24.52
2024-03-08T00:06:52.673Z,27.00
2024-03-08T00:11:55.862Z,26.73
2024-03-08T00:16:57.648Z,25.77
2024-03-08T00:21:59.431Z,27.80
2024-03-08T00:27:02.617Z,27.50
2024-03-08T00:32:04.685Z,27.52
2024-03-08T00:37:06.571Z,25.12
2024-03-08T00:42:09.758Z,26.92
2024-03-08T00:47:11.820Z,26.12
2024-03-08T00:52:13.641Z,26.23
2024-03-08T00:57:17.013Z,26.12
2024-03-08T01:02:18.971Z,26.58
2024-03-08T01:07:20.704Z,27.15
2024-03-08T01:12:23.806Z,26.15
2024-03-08T01:17:25.613Z,24.52
2024-03-08T01:22:27.363Z,24.95
2024-03-08T01:27:30.545Z,25.67
2024-03-08T01:32:32.482Z,26.55
2024-03-08T01:37:34.265Z,26.58
2024-03-08T01:42:37.434Z,27.45
2024-03-08T01:47:39.866Z,27.13
2024-03-08T01:52:41.828Z,26.55
2024-03-08T01:57:45.187Z,26.37
2024-03-08T02:02:47.750Z,27.73
2024-03-08T02:07:49.723Z,26.37
2024-03-08T02:12:52.936Z,27.92
2024-03-08T02:17:54.769Z,27.15
2024-03-08T02:22:58.164Z,28.73
2024-03-08T02:27:59.933Z,27.67
2024-03-08T02:33:01.913Z,26.23
2024-03-08T02:38:05.296Z,26.15
2024-03-08T02:43:07.025Z,25.98
2024-03-08T02:48:09.816Z,26.42
2024-03-08T02:53:13.875Z,26.23
2024-03-08T02:58:16.107Z,25.35
2024-03-08T03:03:18.099Z,28.45
2024-03-08T03:08:21.327Z,25.88
2024-03-08T03:13:23.083Z,29.23
2024-03-08T03:18:25.006Z,28.40
2024-03-08T03:23:28.379Z,28.45
2024-03-08T03:28:30.233Z,27.42
2024-03-08T03:33:32.048Z,27.17
2024-03-08T03:38:35.245Z,25.88
2024-03-08T03:43:37.091Z,26.65
2024-03-08T03:48:38.953Z,28.60
2024-03-08T03:53:42.310Z,28.08
2024-03-08T03:58:44.124Z,28.05
2024-03-08T04:03:45.891Z,25.70
2024-03-08T04:08:49.132Z,27.92
2024-03-08T04:13:50.995Z,27.80
2024-03-08T04:18:52.880Z,27.80
2024-03-08T04:23:55.982Z,27.80
2024-03-08T04:28:57.757Z,26.75
2024-03-08T04:33:59.570Z,28.75
2024-03-08T04:39:02.729Z,27.62
2024-03-08T04:44:04.725Z,28.50
2024-03-08T04:49:06.533Z,28.65
2024-03-08T04:54:09.743Z,27.45
2024-03-08T04:59:11.559Z,30.88
2024-03-08T05:04:13.508Z,27.58
2024-03-08T05:09:16.871Z,26.67
2024-03-08T05:14:18.700Z,29.55
2024-03-08T05:19:21.384Z,28.48
2024-03-08T05:24:24.592Z,27.98
2024-03-08T05:29:26.368Z,28.00
2024-03-08T05:34:28.159Z,28.65
2024-03-08T05:39:31.399Z,30.85
2024-03-08T05:44:33.226Z,28.33
2024-03-08T05:49:35.086Z,26.67
2024-03-08T05:54:38.298Z,28.20
2024-03-08T05:59:40.151Z,29.85
2024-03-08T06:04:41.925Z,26.87
2024-03-08T06:09:45.043Z,28.27
2024-03-08T06:14:46.785Z,27.25
2024-03-08T06:19:48.576Z,28.75
2024-03-08T06:24:51.749Z,28.55
2024-03-08T06:29:53.551Z,26.58
2024-03-08T06:34:55.380Z,30.65
2024-03-08T06:39:58.574Z,31.60
2024-03-08T06:45:00.618Z,28.55
2024-03-08T06:50:02.809Z,30.27
2024-03-08T06:55:07.063Z,28.55
2024-03-08T07:00:10.240Z,29.58
2024-03-08T07:05:12.877Z,29.83
2024-03-08T07:10:16.103Z,28.87
2024-03-08T07:15:18.053Z,28.27
2024-03-08T07:20:20.133Z,31.37
2024-03-08T07:25:23.953Z,32.70
2024-03-08T07:30:29.998Z,26.30
2024-03-08T07:35:32.524Z,27.30
2024-03-08T07:40:38.332Z,29.00
2024-03-08T07:45:40.379Z,27.37
2024-03-08T07:50:42.357Z,29.42
2024-03-08T07:55:45.510Z,28.02
2024-03-08T08:00:47.379Z,30.12
2024-03-08T08:05:49.159Z,26.33
2024-03-08T08:10:52.287Z,29.87
2024-03-08T08:15:54.180Z,27.80
2024-03-08T08:20:55.967Z,28.30
2024-03-08T08:25:59.287Z,27.13
2024-03-08T08:31:01.197Z,27.08
2024-03-08T08:36:03.147Z,28.15
2024-03-08T08:41:06.903Z,26.48
2024-03-08T08:46:08.661Z,27.13
2024-03-08T08:51:11.136Z,26.15
2024-03-08T08:56:14.318Z,26.33
2024-03-08T09:01:16.447Z,27.15
2024-03-08T09:06:18.361Z,25.23
2024-03-08T09:11:21.679Z,26.52
2024-03-08T09:16:23.523Z,24.08
2024-03-08T09:21:25.303Z,24.87
2024-03-08T09:26:29.857Z,25.67
2024-03-08T09:36:33.728Z,23.40
2024-03-08T09:41:37.209Z,24.75
2024-03-08T09:46:39.545Z,24.37
2024-03-08T09:51:41.621Z,24.60
2024-03-08T09:56:45.908Z,24.70
2024-03-08T10:01:47.833Z,26.23
2024-03-08T10:06:49.755Z,23.83
2024-03-08T10:11:56.169Z,25.40
2024-03-08T10:16:59.009Z,24.50
2024-03-08T10:22:01.144Z,24.75
2024-03-08T10:27:04.767Z,26.58
2024-03-08T10:32:08.301Z,22.35
2024-03-08T10:37:22.223Z,23.60
2024-03-08T10:42:29.789Z,25.42
2024-03-08T10:47:35.057Z,25.88
2024-03-08T10:52:37.011Z,25.73
2024-03-08T10:57:41.648Z,24.52
2024-03-08T11:02:45.187Z,26.52
2024-03-08T11:07:47.083Z,23.08
2024-03-08T11:12:50.311Z,23.65
2024-03-08T11:17:52.397Z,23.83
2024-03-08T11:22:55.742Z,23.20
2024-03-08T11:28:10.881Z,24.50
2024-03-08T11:33:14.127Z,23.33
2024-03-08T11:38:15.914Z,22.83
2024-03-08T11:43:19.165Z,24.80
2024-03-08T11:48:21.083Z,25.58
2024-03-08T11:53:22.904Z,25.73
2024-03-08T11:58:26.011Z,25.05
2024-03-08T12:03:27.755Z,24.05
2024-03-08T12:08:29.536Z,24.77
2024-03-08T12:13:33.897Z,25.00
2024-03-08T12:18:38.258Z,25.40
2024-03-08T12:23:41.905Z,24.07
2024-03-08T12:28:49.029Z,24.70
2024-03-08T12:33:54.501Z,23.48
2024-03-08T12:38:59.894Z,24.48
2024-03-08T12:44:03.536Z,25.15
2024-03-08T12:49:05.384Z,24.77
2024-03-08T12:54:08.244Z,23.42
2024-03-08T12:59:12.029Z,23.38
2024-03-08T13:04:13.954Z,24.85
2024-03-08T13:09:15.712Z,24.73
2024-03-08T13:14:18.853Z,25.52
2024-03-08T13:19:20.773Z,22.10
2024-03-08T13:24:22.587Z,22.05
2024-03-08T13:29:25.787Z,23.98
2024-03-08T13:34:27.530Z,21.60
2024-03-08T13:39:29.342Z,24.27
2024-03-08T13:44:32.510Z,24.00
2024-03-08T13:49:34.347Z,24.40
2024-03-08T13:54:36.213Z,23.80
2024-03-08T13:59:39.376Z,24.02
2024-03-08T14:04:41.233Z,23.90
2024-03-08T14:09:43.169Z,23.98
2024-03-08T14:14:46.487Z,23.87
2024-03-08T14:19:48.312Z,23.95
2024-03-08T14:24:50.067Z,22.92
2024-03-08T14:29:53.196Z,23.98
2024-03-08T14:34:57.095Z,22.40
2024-03-08T14:39:59.028Z,23.38
2024-03-08T14:45:02.215Z,23.42
2024-03-08T14:50:04.408Z,23.38
2024-03-08T14:55:06.838Z,23.60
2024-03-08T15:00:10.985Z,22.83
2024-03-08T15:05:14.739Z,25.00
2024-03-08T15:10:16.641Z,22.37
2024-03-08T15:15:19.885Z,23.80
2024-03-08T15:20:21.793Z,24.23
2024-03-08T15:25:23.589Z,24.35
2024-03-08T15:30:26.797Z,22.17
2024-03-08T15:35:28.566Z,22.58
2024-03-08T15:40:30.365Z,22.17
2024-03-08T15:45:33.497Z,23.17
2024-03-08T15:50:35.301Z,24.40
2024-03-08T15:55:37.175Z,22.60
2024-03-08T16:00:40.277Z,24.60
2024-03-08T16:05:42.615Z,23.73
2024-03-08T16:10:45.650Z,19.58
2024-03-08T16:15:52.204Z,22.27
2024-03-08T16:20:55.356Z,20.92
2024-03-08T16:25:57.603Z,22.35
2024-03-08T16:31:00.831Z,20.62
2024-03-08T16:36:02.909Z,21.73
2024-03-08T16:41:05.012Z,21.90
2024-03-08T16:46:08.332Z,22.67
2024-03-08T16:51:10.355Z,21.90
2024-03-08T16:56:12.192Z,21.87
2024-03-08T17:01:15.396Z,23.20
2024-03-08T17:06:17.519Z,23.00
2024-03-08T17:11:21.953Z,22.23
2024-03-08T17:16:26.463Z,22.87
2024-03-08T17:21:28.588Z,21.47
2024-03-08T17:26:30.374Z,21.58
2024-03-08T17:31:33.726Z,21.25
2024-03-08T17:36:35.646Z,23.73
2024-03-08T17:41:37.536Z,22.70
2024-03-08T17:46:40.790Z,22.50
2024-03-08T17:51:42.645Z,24.77
2024-03-08T17:56:44.872Z,21.92
2024-03-08T18:01:48.130Z,22.42
2024-03-08T18:06:52.931Z,22.13
2024-03-08T18:11:55.593Z,23.00
2024-03-08T18:16:58.837Z,22.98
2024-03-08T18:22:00.703Z,22.85
2024-03-08T18:27:02.486Z,22.08
2024-03-08T18:32:06.555Z,22.25
2024-03-08T18:37:08.328Z,24.67
2024-03-08T18:42:10.171Z,24.02
2024-03-08T18:47:13.381Z,23.50
2024-03-08T18:52:15.218Z,23.80
2024-03-08T18:57:17.090Z,23.85
2024-03-08T19:02:20.328Z,23.42
2024-03-08T19:07:22.139Z,23.60
2024-03-08T19:12:24.329Z,23.95
2024-03-08T19:17:27.501Z,24.25
2024-03-08T19:22:29.355Z,25.92
2024-03-08T19:27:31.077Z,23.52
2024-03-08T19:32:34.256Z,24.00
2024-03-08T19:37:36.807Z,25.08
2024-03-08T19:42:38.676Z,23.75
2024-03-08T19:47:41.825Z,24.77
2024-03-08T19:52:45.468Z,24.55
2024-03-08T19:57:50.727Z,24.27
2024-03-08T20:02:55.826Z,23.40
2024-03-08T20:07:58.529Z,25.10
2024-03-08T20:13:00.304Z,22.45
2024-03-08T20:18:03.585Z,23.35
2024-03-08T20:23:05.614Z,24.12
2024-03-08T20:28:07.590Z,24.20
2024-03-08T20:33:11.329Z,24.87
2024-03-08T20:38:13.121Z,24.35
2024-03-08T20:43:15.313Z,25.73
2024-03-08T20:48:18.703Z,24.85
2024-03-08T20:53:20.938Z,25.15
2024-03-08T20:58:23.241Z,24.73
2024-03-08T21:03:26.754Z,24.20
2024-03-08T21:08:29.253Z,24.80
2024-03-08T21:13:31.434Z,26.02
2024-03-08T21:18:34.555Z,24.90
2024-03-08T21:23:36.409Z,26.70
2024-03-08T21:28:38.543Z,26.73
2024-03-08T21:33:41.716Z,28.12
2024-03-08T21:38:43.728Z,25.42
2024-03-08T21:43:45.544Z,25.37
2024-03-08T21:48:48.841Z,24.75
2024-03-08T21:53:50.581Z,26.30
2024-03-08T21:58:52.409Z,25.17
2024-03-08T22:03:55.673Z,26.55
2024-03-08T22:08:57.496Z,26.58
2024-03-08T22:13:59.323Z,25.75
2024-03-08T22:19:02.533Z,25.35
2024-03-08T22:24:04.805Z,27.10
2024-03-08T22:29:06.620Z,24.70
2024-03-08T22:34:09.727Z,25.70
2024-03-08T22:39:11.526Z,26.10
2024-03-08T22:44:13.342Z,25.27
2024-03-08T22:49:16.511Z,23.70
2024-03-08T22:54:18.428Z,25.17
2024-03-08T22:59:20.190Z,25.90
2024-03-08T23:04:23.306Z,24.60
2024-03-08T23:09:25.148Z,27.25
2024-03-08T23:14:26.974Z,27.17
2024-03-08T23:19:30.171Z,25.92
2024-03-08T23:24:31.975Z,27.42
2024-03-08T23:29:33.782Z,26.98
2024-03-08T23:34:36.887Z,23.85
2024-03-08T23:39:38.718Z,24.15
2024-03-08T23:44:41.957Z,25.77
2024-03-08T23:49:45.190Z,23.87
2024-03-08T23:54:46.970Z,26.73
2024-03-08T23:59:48.689Z,27.83
